Impacts TAF Board INFO
FOR SITUATIONAL AWARENESS. NOT TO BE USED FOR FLIGHT PLANNING PURPOSES.
IDs:

KORD - Chicago/O'Hare Intl, IL, US

Issued at 1452 UTC 21 Feb 2018
Updated at 1504 UTC 21 Feb 2018
Potential Impact None Slight Moderate High
Time1451Z 21/16Z 21/17Z 21/18Z 21/19Z 21/20Z 21/21Z 21/22Z 21/23Z 22/00Z 22/01Z 22/02Z 22/03Z 22/04Z>>
Type OBS PRVL PRVL PRVL PRVL PRVL PRVL PRVL PRVL PRVL PRVL PRVL PRVL PRVL
VIS 10 >6 >6 >6 >6 >6 >6 >6 >6 >6 >6 >6 >6 >6
CIG 200 180 180 180 180 180 180 180 180 180 180 180 180 180
Cover OVC BKN BKN BKN BKN BKN BKN BKN BKN BKN BKN BKN BKN BKN
FltCat VFR VFR VFR VFR VFR VFR VFR VFR VFR VFR VFR VFR VFR VFR
WX -- -- -- -- -- -- -- -- -- -- -- -- -- --
WDir 330 350 350 350 30 30 30 30 30 30 30 30 30 30
WSpd 10 13 13 13 10 10 10 10 10 10 10 10 10 10
WGst -- -- -- -- -- -- -- -- -- -- -- -- -- --

Raw TAF
KORD 211452Z 2115/2218 35013KT P6SM SCT018 BKN180
  FM211900 03010KT P6SM FEW020 BKN180
  FM220800 06010KT P6SM FEW020 SCT060 BKN120


Raw METAR
KORD 211451Z 33010KT 10SM FEW018 OVC200 M02/M08 A3049 RMK AO2 SLP334 T10221078 53035
KORD 211351Z 34009KT 10SM BKN210 OVC240 M03/M07 A3046 RMK AO2 SLP324 T10281072
KORD 211251Z 33010KT 10SM FEW130 OVC210 M02/M07 A3042 RMK AO2 SLP307 T10221072

METAR Board
Radar Display
Forecast Discussion

FOR SITUATIONAL AWARENESS. NOT TO BE USED FOR FLIGHT PLANNING PURPOSES.